sensor_id;sensor_type;location;lat;lon;timestamp;P1;durP1;ratioP1;P2;durP2;ratioP2
76477;SDS011;65309;49.790;18.972;2023-10-08T00:03:45;6.57;;;2.80;;
76477;SDS011;65309;49.790;18.972;2023-10-08T00:08:53;7.90;;;3.03;;
76477;SDS011;65309;49.790;18.972;2023-10-08T00:14:01;10.82;;;3.85;;
76477;SDS011;65309;49.790;18.972;2023-10-08T00:19:08;7.35;;;2.85;;
76477;SDS011;65309;49.790;18.972;2023-10-08T00:24:11;5.82;;;3.33;;
76477;SDS011;65309;49.790;18.972;2023-10-08T00:29:16;7.32;;;3.08;;
76477;SDS011;65309;49.790;18.972;2023-10-08T00:34:24;7.40;;;2.80;;
76477;SDS011;65309;49.790;18.972;2023-10-08T00:39:29;6.85;;;3.03;;
76477;SDS011;65309;49.790;18.972;2023-10-08T00:44:36;7.50;;;3.35;;
76477;SDS011;65309;49.790;18.972;2023-10-08T00:49:59;7.15;;;2.80;;
76477;SDS011;65309;49.790;18.972;2023-10-08T00:55:08;4.20;;;2.28;;
76477;SDS011;65309;49.790;18.972;2023-10-08T01:00:16;5.10;;;3.08;;
76477;SDS011;65309;49.790;18.972;2023-10-08T01:05:24;6.47;;;2.53;;
76477;SDS011;65309;49.790;18.972;2023-10-08T01:10:29;11.07;;;3.00;;
76477;SDS011;65309;49.790;18.972;2023-10-08T01:15:31;6.50;;;2.70;;
76477;SDS011;65309;49.790;18.972;2023-10-08T01:20:38;8.20;;;3.15;;
76477;SDS011;65309;49.790;18.972;2023-10-08T01:25:55;6.13;;;2.67;;
76477;SDS011;65309;49.790;18.972;2023-10-08T01:31:02;7.60;;;2.88;;
76477;SDS011;65309;49.790;18.972;2023-10-08T01:36:06;4.28;;;2.55;;
76477;SDS011;65309;49.790;18.972;2023-10-08T01:41:16;5.45;;;3.55;;
76477;SDS011;65309;49.790;18.972;2023-10-08T01:46:21;7.10;;;3.00;;
76477;SDS011;65309;49.790;18.972;2023-10-08T01:51:24;7.43;;;2.60;;
76477;SDS011;65309;49.790;18.972;2023-10-08T01:56:28;8.45;;;2.92;;
76477;SDS011;65309;49.790;18.972;2023-10-08T02:01:31;4.70;;;2.65;;
76477;SDS011;65309;49.790;18.972;2023-10-08T02:11:44;5.45;;;3.00;;
76477;SDS011;65309;49.790;18.972;2023-10-08T02:16:52;4.32;;;2.20;;
76477;SDS011;65309;49.790;18.972;2023-10-08T02:21:58;8.27;;;4.05;;
76477;SDS011;65309;49.790;18.972;2023-10-08T02:27:01;5.25;;;3.05;;
76477;SDS011;65309;49.790;18.972;2023-10-08T02:32:04;7.00;;;4.00;;
76477;SDS011;65309;49.790;18.972;2023-10-08T02:37:06;7.63;;;2.78;;
76477;SDS011;65309;49.790;18.972;2023-10-08T02:42:10;3.65;;;2.33;;
76477;SDS011;65309;49.790;18.972;2023-10-08T02:47:12;9.80;;;3.65;;
76477;SDS011;65309;49.790;18.972;2023-10-08T02:52:20;6.03;;;3.05;;
76477;SDS011;65309;49.790;18.972;2023-10-08T03:02:25;6.47;;;3.15;;
76477;SDS011;65309;49.790;18.972;2023-10-08T03:07:28;5.05;;;2.55;;
76477;SDS011;65309;49.790;18.972;2023-10-08T03:12:38;7.72;;;3.10;;
76477;SDS011;65309;49.790;18.972;2023-10-08T03:17:42;6.63;;;2.45;;
76477;SDS011;65309;49.790;18.972;2023-10-08T03:22:51;8.80;;;2.53;;
76477;SDS011;65309;49.790;18.972;2023-10-08T03:27:54;7.03;;;2.88;;
76477;SDS011;65309;49.790;18.972;2023-10-08T03:32:59;3.42;;;2.67;;
76477;SDS011;65309;49.790;18.972;2023-10-08T03:38:03;2.85;;;2.53;;
76477;SDS011;65309;49.790;18.972;2023-10-08T03:43:22;4.22;;;2.70;;
76477;SDS011;65309;49.790;18.972;2023-10-08T03:53:41;2.70;;;1.80;;
76477;SDS011;65309;49.790;18.972;2023-10-08T03:59:23;2.35;;;1.27;;
76477;SDS011;65309;49.790;18.972;2023-10-08T04:04:32;3.10;;;1.77;;
76477;SDS011;65309;49.790;18.972;2023-10-08T04:09:55;3.60;;;2.25;;
76477;SDS011;65309;49.790;18.972;2023-10-08T04:15:14;2.58;;;1.42;;
76477;SDS011;65309;49.790;18.972;2023-10-08T04:20:19;1.65;;;1.02;;
76477;SDS011;65309;49.790;18.972;2023-10-08T04:25:53;0.85;;;0.75;;
76477;SDS011;65309;49.790;18.972;2023-10-08T04:30:57;0.38;;;0.38;;
76477;SDS011;65309;49.790;18.972;2023-10-08T04:36:16;0.73;;;0.43;;
76477;SDS011;65309;49.790;18.972;2023-10-08T04:41:21;0.82;;;0.65;;
76477;SDS011;65309;49.790;18.972;2023-10-08T04:46:31;0.52;;;0.43;;
76477;SDS011;65309;49.790;18.972;2023-10-08T04:51:49;1.75;;;1.17;;
76477;SDS011;65309;49.790;18.972;2023-10-08T04:56:51;2.03;;;0.70;;
76477;SDS011;65309;49.790;18.972;2023-10-08T05:01:56;0.52;;;0.50;;
76477;SDS011;65309;49.790;18.972;2023-10-08T05:07:17;0.68;;;0.68;;
76477;SDS011;65309;49.790;18.972;2023-10-08T05:12:22;0.65;;;0.50;;
76477;SDS011;65309;49.790;18.972;2023-10-08T05:17:41;0.10;;;0.10;;
76477;SDS011;65309;49.790;18.972;2023-10-08T05:22:53;6.18;;;1.45;;
76477;SDS011;65309;49.790;18.972;2023-10-08T05:28:07;1.88;;;1.17;;
76477;SDS011;65309;49.790;18.972;2023-10-08T05:33:27;1.10;;;0.77;;
76477;SDS011;65309;49.790;18.972;2023-10-08T05:38:52;1.67;;;1.00;;
76477;SDS011;65309;49.790;18.972;2023-10-08T05:44:06;6.50;;;1.33;;
76477;SDS011;65309;49.790;18.972;2023-10-08T05:49:27;0.88;;;0.40;;
76477;SDS011;65309;49.790;18.972;2023-10-08T05:54:30;6.05;;;1.35;;
76477;SDS011;65309;49.790;18.972;2023-10-08T05:59:33;3.53;;;0.90;;
76477;SDS011;65309;49.790;18.972;2023-10-08T06:04:58;2.92;;;1.00;;
76477;SDS011;65309;49.790;18.972;2023-10-08T06:10:13;1.38;;;0.93;;
76477;SDS011;65309;49.790;18.972;2023-10-08T06:15:35;3.08;;;1.35;;
76477;SDS011;65309;49.790;18.972;2023-10-08T06:20:52;3.10;;;1.58;;
76477;SDS011;65309;49.790;18.972;2023-10-08T06:26:00;2.03;;;1.10;;
76477;SDS011;65309;49.790;18.972;2023-10-08T06:31:12;2.22;;;1.35;;
76477;SDS011;65309;49.790;18.972;2023-10-08T06:36:19;2.67;;;1.58;;
76477;SDS011;65309;49.790;18.972;2023-10-08T06:41:26;3.25;;;1.50;;
76477;SDS011;65309;49.790;18.972;2023-10-08T06:46:49;2.58;;;2.17;;
76477;SDS011;65309;49.790;18.972;2023-10-08T06:51:55;2.92;;;1.50;;
76477;SDS011;65309;49.790;18.972;2023-10-08T06:56:57;3.85;;;1.10;;
76477;SDS011;65309;49.790;18.972;2023-10-08T07:02:01;2.00;;;1.60;;
76477;SDS011;65309;49.790;18.972;2023-10-08T07:12:11;2.28;;;1.38;;
76477;SDS011;65309;49.790;18.972;2023-10-08T07:17:16;2.33;;;1.05;;
76477;SDS011;65309;49.790;18.972;2023-10-08T07:22:23;1.88;;;1.25;;
76477;SDS011;65309;49.790;18.972;2023-10-08T07:27:30;3.08;;;1.67;;
76477;SDS011;65309;49.790;18.972;2023-10-08T07:32:34;3.38;;;1.75;;
76477;SDS011;65309;49.790;18.972;2023-10-08T07:37:38;2.72;;;1.20;;
76477;SDS011;65309;49.790;18.972;2023-10-08T07:42:40;4.43;;;1.38;;
76477;SDS011;65309;49.790;18.972;2023-10-08T07:47:42;1.95;;;1.33;;
76477;SDS011;65309;49.790;18.972;2023-10-08T07:52:47;2.05;;;1.30;;
76477;SDS011;65309;49.790;18.972;2023-10-08T07:57:49;2.65;;;1.50;;
76477;SDS011;65309;49.790;18.972;2023-10-08T08:02:51;2.75;;;1.65;;
76477;SDS011;65309;49.790;18.972;2023-10-08T08:07:56;1.55;;;0.95;;
76477;SDS011;65309;49.790;18.972;2023-10-08T08:13:01;4.32;;;2.20;;
76477;SDS011;65309;49.790;18.972;2023-10-08T08:18:03;9.00;;;4.15;;
76477;SDS011;65309;49.790;18.972;2023-10-08T08:23:09;6.32;;;1.95;;
76477;SDS011;65309;49.790;18.972;2023-10-08T08:28:11;7.53;;;4.40;;
76477;SDS011;65309;49.790;18.972;2023-10-08T08:33:18;5.90;;;1.98;;
76477;SDS011;65309;49.790;18.972;2023-10-08T08:38:26;1.50;;;1.05;;
76477;SDS011;65309;49.790;18.972;2023-10-08T08:43:28;5.88;;;3.70;;
76477;SDS011;65309;49.790;18.972;2023-10-08T08:48:35;7.03;;;3.28;;
76477;SDS011;65309;49.790;18.972;2023-10-08T08:53:42;5.18;;;1.90;;
76477;SDS011;65309;49.790;18.972;2023-10-08T08:58:44;5.55;;;2.63;;
76477;SDS011;65309;49.790;18.972;2023-10-08T09:03:48;2.70;;;2.08;;
76477;SDS011;65309;49.790;18.972;2023-10-08T09:08:53;10.13;;;3.42;;
76477;SDS011;65309;49.790;18.972;2023-10-08T09:13:57;8.10;;;3.63;;
76477;SDS011;65309;49.790;18.972;2023-10-08T09:19:04;5.45;;;3.13;;
76477;SDS011;65309;49.790;18.972;2023-10-08T09:24:17;3.47;;;3.08;;
76477;SDS011;65309;49.790;18.972;2023-10-08T09:29:22;7.10;;;2.08;;
76477;SDS011;65309;49.790;18.972;2023-10-08T09:34:28;7.00;;;3.60;;
76477;SDS011;65309;49.790;18.972;2023-10-08T09:39:32;4.00;;;2.70;;
76477;SDS011;65309;49.790;18.972;2023-10-08T09:44:37;7.97;;;1.73;;
76477;SDS011;65309;49.790;18.972;2023-10-08T09:49:40;8.60;;;3.03;;
76477;SDS011;65309;49.790;18.972;2023-10-08T09:54:48;2.67;;;1.67;;
76477;SDS011;65309;49.790;18.972;2023-10-08T09:59:54;5.15;;;2.15;;
76477;SDS011;65309;49.790;18.972;2023-10-08T10:04:59;1.50;;;1.23;;
76477;SDS011;65309;49.790;18.972;2023-10-08T10:10:04;1.67;;;1.20;;
76477;SDS011;65309;49.790;18.972;2023-10-08T10:15:27;1.63;;;1.30;;
76477;SDS011;65309;49.790;18.972;2023-10-08T10:20:33;3.60;;;2.00;;
76477;SDS011;65309;49.790;18.972;2023-10-08T10:25:37;2.05;;;1.20;;
76477;SDS011;65309;49.790;18.972;2023-10-08T10:30:45;3.75;;;1.58;;
76477;SDS011;65309;49.790;18.972;2023-10-08T10:35:53;2.17;;;1.45;;
76477;SDS011;65309;49.790;18.972;2023-10-08T10:45:59;7.15;;;2.03;;
76477;SDS011;65309;49.790;18.972;2023-10-08T10:51:22;2.13;;;1.55;;
76477;SDS011;65309;49.790;18.972;2023-10-08T10:56:28;0.95;;;0.90;;
76477;SDS011;65309;49.790;18.972;2023-10-08T11:01:33;1.75;;;1.42;;
76477;SDS011;65309;49.790;18.972;2023-10-08T11:06:46;4.18;;;1.55;;
76477;SDS011;65309;49.790;18.972;2023-10-08T11:11:53;1.77;;;1.48;;
76477;SDS011;65309;49.790;18.972;2023-10-08T11:16:56;1.17;;;0.98;;
76477;SDS011;65309;49.790;18.972;2023-10-08T11:21:58;1.73;;;1.17;;
76477;SDS011;65309;49.790;18.972;2023-10-08T11:27:02;0.85;;;0.80;;
76477;SDS011;65309;49.790;18.972;2023-10-08T11:32:19;1.10;;;0.77;;
76477;SDS011;65309;49.790;18.972;2023-10-08T11:37:27;1.95;;;1.40;;
76477;SDS011;65309;49.790;18.972;2023-10-08T11:42:31;1.15;;;0.93;;
76477;SDS011;65309;49.790;18.972;2023-10-08T11:47:36;1.20;;;0.82;;
76477;SDS011;65309;49.790;18.972;2023-10-08T11:52:38;2.80;;;1.15;;
76477;SDS011;65309;49.790;18.972;2023-10-08T11:57:45;3.47;;;1.27;;
76477;SDS011;65309;49.790;18.972;2023-10-08T12:02:48;1.10;;;1.00;;
76477;SDS011;65309;49.790;18.972;2023-10-08T12:07:51;0.88;;;0.60;;
76477;SDS011;65309;49.790;18.972;2023-10-08T12:12:56;1.88;;;0.88;;
76477;SDS011;65309;49.790;18.972;2023-10-08T12:17:58;0.88;;;0.52;;
76477;SDS011;65309;49.790;18.972;2023-10-08T12:23:19;1.17;;;0.98;;
76477;SDS011;65309;49.790;18.972;2023-10-08T12:28:28;3.42;;;1.10;;
76477;SDS011;65309;49.790;18.972;2023-10-08T12:33:30;3.38;;;1.10;;
76477;SDS011;65309;49.790;18.972;2023-10-08T12:38:33;0.73;;;0.73;;
76477;SDS011;65309;49.790;18.972;2023-10-08T12:43:40;2.90;;;1.67;;
76477;SDS011;65309;49.790;18.972;2023-10-08T12:48:54;1.40;;;0.85;;
76477;SDS011;65309;49.790;18.972;2023-10-08T12:53:57;1.35;;;0.80;;
76477;SDS011;65309;49.790;18.972;2023-10-08T12:59:12;2.17;;;0.82;;
76477;SDS011;65309;49.790;18.972;2023-10-08T13:04:22;0.90;;;0.80;;
76477;SDS011;65309;49.790;18.972;2023-10-08T13:09:30;1.35;;;1.08;;
76477;SDS011;65309;49.790;18.972;2023-10-08T13:14:34;2.15;;;0.98;;
76477;SDS011;65309;49.790;18.972;2023-10-08T13:19:37;0.90;;;0.73;;
76477;SDS011;65309;49.790;18.972;2023-10-08T13:24:39;0.98;;;0.82;;
76477;SDS011;65309;49.790;18.972;2023-10-08T13:29:44;1.25;;;0.60;;
76477;SDS011;65309;49.790;18.972;2023-10-08T13:34:46;0.98;;;0.68;;
76477;SDS011;65309;49.790;18.972;2023-10-08T13:39:48;1.23;;;0.75;;
76477;SDS011;65309;49.790;18.972;2023-10-08T13:44:52;1.40;;;0.88;;
76477;SDS011;65309;49.790;18.972;2023-10-08T13:49:57;2.58;;;0.68;;
76477;SDS011;65309;49.790;18.972;2023-10-08T13:55:00;1.35;;;0.90;;
76477;SDS011;65309;49.790;18.972;2023-10-08T14:00:05;1.95;;;1.33;;
76477;SDS011;65309;49.790;18.972;2023-10-08T14:05:17;0.93;;;0.75;;
76477;SDS011;65309;49.790;18.972;2023-10-08T14:10:23;2.25;;;1.30;;
76477;SDS011;65309;49.790;18.972;2023-10-08T14:15:33;1.33;;;0.82;;
76477;SDS011;65309;49.790;18.972;2023-10-08T14:20:38;1.83;;;0.93;;
76477;SDS011;65309;49.790;18.972;2023-10-08T14:25:43;1.98;;;0.95;;
76477;SDS011;65309;49.790;18.972;2023-10-08T14:30:49;1.38;;;0.63;;
76477;SDS011;65309;49.790;18.972;2023-10-08T14:35:57;1.65;;;1.15;;
76477;SDS011;65309;49.790;18.972;2023-10-08T14:41:19;0.75;;;0.57;;
76477;SDS011;65309;49.790;18.972;2023-10-08T14:46:42;0.90;;;0.73;;
76477;SDS011;65309;49.790;18.972;2023-10-08T14:51:46;1.52;;;0.98;;
76477;SDS011;65309;49.790;18.972;2023-10-08T14:56:51;6.13;;;1.67;;
76477;SDS011;65309;49.790;18.972;2023-10-08T15:01:55;11.40;;;5.03;;
76477;SDS011;65309;49.790;18.972;2023-10-08T15:06:58;2.65;;;1.60;;
76477;SDS011;65309;49.790;18.972;2023-10-08T15:12:01;1.83;;;1.15;;
76477;SDS011;65309;49.790;18.972;2023-10-08T15:22:07;2.08;;;1.13;;
76477;SDS011;65309;49.790;18.972;2023-10-08T15:27:09;2.15;;;1.00;;
76477;SDS011;65309;49.790;18.972;2023-10-08T15:32:13;2.90;;;2.05;;
76477;SDS011;65309;49.790;18.972;2023-10-08T15:37:16;3.67;;;2.15;;
76477;SDS011;65309;49.790;18.972;2023-10-08T15:42:19;1.48;;;1.08;;
76477;SDS011;65309;49.790;18.972;2023-10-08T15:47:22;2.72;;;1.08;;
76477;SDS011;65309;49.790;18.972;2023-10-08T15:52:25;2.55;;;1.20;;
76477;SDS011;65309;49.790;18.972;2023-10-08T15:57:27;5.05;;;2.17;;
76477;SDS011;65309;49.790;18.972;2023-10-08T16:02:30;3.00;;;1.70;;
76477;SDS011;65309;49.790;18.972;2023-10-08T16:07:33;6.18;;;3.50;;
76477;SDS011;65309;49.790;18.972;2023-10-08T16:12:35;5.07;;;2.42;;
76477;SDS011;65309;49.790;18.972;2023-10-08T16:17:39;3.80;;;1.98;;
76477;SDS011;65309;49.790;18.972;2023-10-08T16:22:45;4.28;;;2.53;;
76477;SDS011;65309;49.790;18.972;2023-10-08T16:27:50;3.45;;;2.03;;
76477;SDS011;65309;49.790;18.972;2023-10-08T16:32:56;3.90;;;2.03;;
76477;SDS011;65309;49.790;18.972;2023-10-08T16:37:59;5.38;;;2.22;;
76477;SDS011;65309;49.790;18.972;2023-10-08T16:43:01;4.40;;;2.15;;
76477;SDS011;65309;49.790;18.972;2023-10-08T16:48:05;2.60;;;1.83;;
76477;SDS011;65309;49.790;18.972;2023-10-08T16:53:09;7.05;;;3.15;;
76477;SDS011;65309;49.790;18.972;2023-10-08T16:58:11;19.83;;;6.38;;
76477;SDS011;65309;49.790;18.972;2023-10-08T17:03:15;12.00;;;4.32;;
76477;SDS011;65309;49.790;18.972;2023-10-08T17:08:18;4.22;;;2.65;;
76477;SDS011;65309;49.790;18.972;2023-10-08T17:13:21;3.10;;;2.35;;
76477;SDS011;65309;49.790;18.972;2023-10-08T17:18:25;6.95;;;2.55;;
76477;SDS011;65309;49.790;18.972;2023-10-08T17:23:31;5.38;;;3.10;;
76477;SDS011;65309;49.790;18.972;2023-10-08T17:28:33;2.88;;;2.08;;
76477;SDS011;65309;49.790;18.972;2023-10-08T17:33:36;2.78;;;1.65;;
76477;SDS011;65309;49.790;18.972;2023-10-08T17:38:40;2.15;;;1.50;;
76477;SDS011;65309;49.790;18.972;2023-10-08T17:43:42;4.15;;;1.85;;
76477;SDS011;65309;49.790;18.972;2023-10-08T17:48:46;2.38;;;1.73;;
76477;SDS011;65309;49.790;18.972;2023-10-08T17:53:48;7.32;;;2.35;;
76477;SDS011;65309;49.790;18.972;2023-10-08T17:58:50;5.88;;;1.75;;
76477;SDS011;65309;49.790;18.972;2023-10-08T18:03:54;2.70;;;1.88;;
76477;SDS011;65309;49.790;18.972;2023-10-08T18:08:56;8.20;;;2.75;;
76477;SDS011;65309;49.790;18.972;2023-10-08T18:13:58;2.03;;;1.35;;
76477;SDS011;65309;49.790;18.972;2023-10-08T18:19:02;3.40;;;1.48;;
76477;SDS011;65309;49.790;18.972;2023-10-08T18:24:05;2.17;;;1.58;;
76477;SDS011;65309;49.790;18.972;2023-10-08T18:29:08;2.28;;;1.42;;
76477;SDS011;65309;49.790;18.972;2023-10-08T18:34:16;2.78;;;2.00;;
76477;SDS011;65309;49.790;18.972;2023-10-08T18:39:19;4.32;;;2.22;;
76477;SDS011;65309;49.790;18.972;2023-10-08T18:44:21;2.70;;;1.65;;
76477;SDS011;65309;49.790;18.972;2023-10-08T18:49:25;2.53;;;1.25;;
76477;SDS011;65309;49.790;18.972;2023-10-08T18:54:29;1.90;;;1.35;;
76477;SDS011;65309;49.790;18.972;2023-10-08T18:59:32;2.42;;;1.70;;
76477;SDS011;65309;49.790;18.972;2023-10-08T19:04:35;4.95;;;1.73;;
76477;SDS011;65309;49.790;18.972;2023-10-08T19:09:37;2.88;;;1.90;;
76477;SDS011;65309;49.790;18.972;2023-10-08T19:14:40;7.30;;;1.90;;
76477;SDS011;65309;49.790;18.972;2023-10-08T19:19:44;4.68;;;2.25;;
76477;SDS011;65309;49.790;18.972;2023-10-08T19:24:46;6.30;;;1.92;;
76477;SDS011;65309;49.790;18.972;2023-10-08T19:29:48;5.40;;;2.05;;
76477;SDS011;65309;49.790;18.972;2023-10-08T19:34:52;6.45;;;2.75;;
76477;SDS011;65309;49.790;18.972;2023-10-08T19:39:55;6.60;;;2.63;;
76477;SDS011;65309;49.790;18.972;2023-10-08T19:44:57;3.10;;;1.65;;
76477;SDS011;65309;49.790;18.972;2023-10-08T19:50:01;4.38;;;1.80;;
76477;SDS011;65309;49.790;18.972;2023-10-08T19:55:12;2.08;;;1.05;;
76477;SDS011;65309;49.790;18.972;2023-10-08T20:00:15;3.30;;;1.63;;
76477;SDS011;65309;49.790;18.972;2023-10-08T20:05:26;2.22;;;1.38;;
76477;SDS011;65309;49.790;18.972;2023-10-08T20:10:29;3.38;;;1.23;;
76477;SDS011;65309;49.790;18.972;2023-10-08T20:15:31;2.03;;;1.42;;
76477;SDS011;65309;49.790;18.972;2023-10-08T20:20:35;1.33;;;0.95;;
76477;SDS011;65309;49.790;18.972;2023-10-08T20:25:38;1.48;;;1.05;;
76477;SDS011;65309;49.790;18.972;2023-10-08T20:30:42;2.00;;;1.40;;
76477;SDS011;65309;49.790;18.972;2023-10-08T20:40:52;1.38;;;0.90;;
76477;SDS011;65309;49.790;18.972;2023-10-08T20:45:54;2.83;;;1.42;;
76477;SDS011;65309;49.790;18.972;2023-10-08T20:50:59;1.35;;;0.88;;
76477;SDS011;65309;49.790;18.972;2023-10-08T20:56:04;2.05;;;1.25;;
76477;SDS011;65309;49.790;18.972;2023-10-08T21:01:07;2.97;;;1.13;;
76477;SDS011;65309;49.790;18.972;2023-10-08T21:06:18;2.47;;;1.02;;
76477;SDS011;65309;49.790;18.972;2023-10-08T21:11:21;1.27;;;1.17;;
76477;SDS011;65309;49.790;18.972;2023-10-08T21:16:24;1.20;;;1.10;;
76477;SDS011;65309;49.790;18.972;2023-10-08T21:21:28;1.63;;;1.02;;
76477;SDS011;65309;49.790;18.972;2023-10-08T21:26:30;1.52;;;1.20;;
76477;SDS011;65309;49.790;18.972;2023-10-08T21:31:32;2.60;;;0.95;;
76477;SDS011;65309;49.790;18.972;2023-10-08T21:36:35;3.90;;;1.08;;
76477;SDS011;65309;49.790;18.972;2023-10-08T21:41:37;1.45;;;1.15;;
76477;SDS011;65309;49.790;18.972;2023-10-08T21:46:40;2.17;;;0.68;;
76477;SDS011;65309;49.790;18.972;2023-10-08T21:51:45;3.05;;;0.80;;
76477;SDS011;65309;49.790;18.972;2023-10-08T21:56:47;0.85;;;0.70;;
76477;SDS011;65309;49.790;18.972;2023-10-08T22:01:49;0.60;;;0.45;;
76477;SDS011;65309;49.790;18.972;2023-10-08T22:06:53;1.55;;;0.77;;
76477;SDS011;65309;49.790;18.972;2023-10-08T22:11:55;0.95;;;0.70;;
76477;SDS011;65309;49.790;18.972;2023-10-08T22:17:00;4.18;;;1.00;;
76477;SDS011;65309;49.790;18.972;2023-10-08T22:22:04;1.15;;;1.05;;
76477;SDS011;65309;49.790;18.972;2023-10-08T22:27:08;0.40;;;0.40;;
76477;SDS011;65309;49.790;18.972;2023-10-08T22:32:29;2.03;;;1.15;;
76477;SDS011;65309;49.790;18.972;2023-10-08T22:37:33;3.08;;;0.90;;
76477;SDS011;65309;49.790;18.972;2023-10-08T22:42:55;0.50;;;0.47;;
76477;SDS011;65309;49.790;18.972;2023-10-08T22:47:58;0.45;;;0.43;;
76477;SDS011;65309;49.790;18.972;2023-10-08T22:53:02;1.27;;;0.65;;
76477;SDS011;65309;49.790;18.972;2023-10-08T22:58:05;1.70;;;0.55;;
76477;SDS011;65309;49.790;18.972;2023-10-08T23:03:09;1.35;;;1.13;;
76477;SDS011;65309;49.790;18.972;2023-10-08T23:08:14;0.40;;;0.40;;
76477;SDS011;65309;49.790;18.972;2023-10-08T23:18:18;0.90;;;0.55;;
76477;SDS011;65309;49.790;18.972;2023-10-08T23:23:26;0.50;;;0.50;;
76477;SDS011;65309;49.790;18.972;2023-10-08T23:28:28;0.82;;;0.60;;
76477;SDS011;65309;49.790;18.972;2023-10-08T23:33:31;2.42;;;0.50;;
76477;SDS011;65309;49.790;18.972;2023-10-08T23:38:38;2.80;;;1.00;;
76477;SDS011;65309;49.790;18.972;2023-10-08T23:43:41;1.92;;;0.80;;
76477;SDS011;65309;49.790;18.972;2023-10-08T23:53:56;0.73;;;0.70;;
76477;SDS011;65309;49.790;18.972;2023-10-08T23:59:03;1.15;;;0.60;;
